Delevan, New York
Current Conditions -  °F | °C
As of 1:15 AM on Thursday 23 Oct 2014 (Local Time) from KOLE Reporting Station
Overcast Overcast  
Wind Chill: 35°   Ceiling: 700
Heat Index: 41°   Visibility: 10mi
Dew Point: 41°   Wind: 9mph
Humidity: 100%   Direction: 340°NNW
Pressure: 30.1"   Gusts: NA
Location:  42.49°N, 78.48°W
Report Text: KOLE 230515Z AUTO 34008KT 10SM OVC007 05/05 A3010 RMK AO2
Loading
Personal Weather Stations






























Interactive Weather Map
Tropical Storm Tracking
New forecast layout! Learn more

10-Day Weather Forecast

Advertisements
Track Severe Weather on mobile